
Distance (Route):
Temperature : 28.7°C
Humidity : 34.9%
Pressure : 0hPa| Receiver | Frames | First received | Last received |
|---|---|---|---|
| LZ4TU-5 | 138 | 2026-09-01 11:20:02 | 2026-09-01 12:58:30 |
| Receiver | Date | Latitude | Longitude | Direction | Speed | Altitude | Climb | Temperature | Humidity | Pressure | Voltage | Killtimer | Uptime | BKT | XDATA |
|---|---|---|---|---|---|---|---|---|---|---|---|---|---|---|---|
| LZ4TU-5 | 2026-09-01 12:58:30 | 44.21937 | 23.40904 | 149° | 15km/h | 546m | -13.3m/s | 28.7°C | 34.9% | 0hPa | 0V | 00:00:00 | 00:00:00 | 00:00:00 | |
| LZ4TU-5 | 2026-09-01 12:58:24 | 44.21956 | 23.40888 | 154° | 15km/h | 622m | -13.0m/s | 27.9°C | 35.6% | 0hPa | 0V | 00:00:00 | 00:00:00 | 00:00:00 | |
| LZ4TU-5 | 2026-09-01 12:58:20 | 44.21968 | 23.40878 | 136° | 9km/h | 671m | -12.2m/s | 27.5°C | 36.0% | 0hPa | 0V | 00:00:00 | 00:00:00 | 00:00:00 | |
| LZ4TU-5 | 2026-09-01 12:58:14 | 44.21978 | 23.40863 | 122° | 15km/h | 734m | -13.3m/s | 26.9°C | 36.7% | 0hPa | 0V | 00:00:00 | 00:00:00 | 00:00:00 | |
| LZ4TU-5 | 2026-09-01 12:58:09 | 44.21984 | 23.40838 | 97° | 16km/h | 798m | -13.0m/s | 26.4°C | 37.4% | 0hPa | 0V | 00:00:00 | 00:00:00 | 00:00:00 | |
| LZ4TU-5 | 2026-09-01 12:58:04 | 44.21987 | 23.40812 | 104° | 15km/h | 863m | -12.7m/s | 25.7°C | 38.2% | 0hPa | 0V | 00:00:00 | 00:00:00 | 00:00:00 | |
| LZ4TU-5 | 2026-09-01 12:57:59 | 44.21990 | 23.40796 | 88° | 7km/h | 925m | -11.7m/s | 25.2°C | 39.1% | 0hPa | 0V | 00:00:00 | 00:00:00 | 00:00:00 | |
| LZ4TU-5 | 2026-09-01 12:57:54 | 44.21990 | 23.40784 | 99° | 7km/h | 983m | -12.0m/s | 24.7°C | 40.0% | 0hPa | 0V | 00:00:00 | 00:00:00 | 00:00:00 | |
| LZ4TU-5 | 2026-09-01 12:57:49 | 44.21992 | 23.40766 | 99° | 13km/h | 1049m | -14.5m/s | 24.0°C | 41.1% | 0hPa | 0V | 00:00:00 | 00:00:00 | 00:00:00 | |
| LZ4TU-5 | 2026-09-01 12:57:44 | 44.21993 | 23.40745 | 91° | 9km/h | 1123m | -15.1m/s | 23.2°C | 42.2% | 0hPa | 0V | 00:00:00 | 00:00:00 | 00:00:00 | |
| LZ4TU-5 | 2026-09-01 12:57:40 | 44.21993 | 23.40733 | 101° | 7km/h | 1184m | -14.7m/s | 22.7°C | 43.1% | 0hPa | 0V | 00:00:00 | 00:00:00 | 00:00:00 | |
| LZ4TU-5 | 2026-09-01 12:57:36 | 44.21995 | 23.40720 | 98° | 9km/h | 1244m | -14.9m/s | 22.2°C | 44.0% | 0hPa | 0V | 00:00:00 | 00:00:00 | 00:00:00 | |
| LZ4TU-5 | 2026-09-01 12:57:31 | 44.21998 | 23.40702 | 110° | 13km/h | 1317m | -14.0m/s | 21.5°C | 45.2% | 0hPa | 0V | 00:00:00 | 00:00:00 | 00:00:00 | |
| LZ4TU-5 | 2026-09-01 12:57:27 | 44.22001 | 23.40685 | 107° | 11km/h | 1373m | -14.4m/s | 20.9°C | 46.2% | 0hPa | 0V | 00:00:00 | 00:00:00 | 00:00:00 | |
| LZ4TU-5 | 2026-09-01 12:57:23 | 44.22004 | 23.40670 | 105° | 9km/h | 1433m | -15.3m/s | 20.4°C | 47.2% | 0hPa | 0V | 00:00:00 | 00:00:00 | 00:00:00 | |
| LZ4TU-5 | 2026-09-01 12:57:18 | 44.22006 | 23.40652 | 101° | 7km/h | 1508m | -14.2m/s | 19.7°C | 48.4% | 0hPa | 0V | 00:00:00 | 00:00:00 | 00:00:00 | |
| LZ4TU-5 | 2026-09-01 12:57:15 | 44.22005 | 23.40642 | 92° | 7km/h | 1564m | -13.5m/s | 19.2°C | 49.5% | 0hPa | 0V | 00:00:00 | 00:00:00 | 00:00:00 | |
| LZ4TU-5 | 2026-09-01 12:57:10 | 44.22006 | 23.40631 | 108° | 5km/h | 1618m | -12.9m/s | 18.7°C | 50.5% | 0hPa | 0V | 00:00:00 | 00:00:00 | 00:00:00 | |
| LZ4TU-5 | 2026-09-01 12:57:05 | 44.22009 | 23.40620 | 136° | 5km/h | 1684m | -12.4m/s | 18.1°C | 52.1% | 0hPa | 0V | 00:00:00 | 00:00:00 | 00:00:00 | |
| LZ4TU-5 | 2026-09-01 12:57:00 | 44.22013 | 23.40613 | 166° | 5km/h | 1749m | -12.5m/s | 17.6°C | 53.9% | 0hPa | 0V | 00:00:00 | 00:00:00 | 00:00:00 | |
| LZ4TU-5 | 2026-09-01 12:56:55 | 44.22023 | 23.40611 | 166° | 5km/h | 1807m | -13.7m/s | 16.9°C | 55.9% | 0hPa | 0V | 00:00:00 | 00:00:00 | 00:00:00 | |
| LZ4TU-5 | 2026-09-01 12:56:51 | 44.22029 | 23.40607 | 150° | 7km/h | 1865m | -14.6m/s | 16.2°C | 57.4% | 0hPa | 0V | 00:00:00 | 00:00:00 | 00:00:00 | |
| LZ4TU-5 | 2026-09-01 12:56:46 | 44.22038 | 23.40601 | 157° | 9km/h | 1940m | -14.7m/s | 15.6°C | 58.7% | 0hPa | 0V | 00:00:00 | 00:00:00 | 00:00:00 | |
| LZ4TU-5 | 2026-09-01 12:56:42 | 44.22047 | 23.40597 | 154° | 9km/h | 1998m | -14.3m/s | 15.1°C | 60.3% | 0hPa | 0V | 00:00:00 | 00:00:00 | 00:00:00 | |
| LZ4TU-5 | 2026-09-01 12:56:38 | 44.22056 | 23.40594 | 161° | 9km/h | 2051m | -13.7m/s | 14.5°C | 61.9% | 0hPa | 0V | 00:00:00 | 00:00:00 | 00:00:00 | |
| LZ4TU-5 | 2026-09-01 12:56:33 | 44.22067 | 23.40589 | 162° | 9km/h | 2110m | -13.3m/s | 13.9°C | 64.0% | 0hPa | 0V | 00:00:00 | 00:00:00 | 00:00:00 | |
| LZ4TU-5 | 2026-09-01 12:56:28 | 44.22076 | 23.40582 | 148° | 9km/h | 2183m | -14.3m/s | 13.2°C | 0% | 0hPa | 0V | 00:00:00 | 00:00:00 | 00:00:00 | |
| LZ4TU-5 | 2026-09-01 12:56:24 | 44.22083 | 23.40573 | 144° | 9km/h | 2241m | -13.7m/s | 12.7°C | 68.4% | 0hPa | 0V | 00:00:00 | 00:00:00 | 00:00:00 | |
| LZ4TU-5 | 2026-09-01 12:56:19 | 44.22092 | 23.40561 | 138° | 11km/h | 2312m | -13.8m/s | 12.0°C | 70.7% | 0hPa | 0V | 00:00:00 | 00:00:00 | 00:00:00 | |
| LZ4TU-5 | 2026-09-01 12:56:15 | 44.22100 | 23.40547 | 126° | 13km/h | 2369m | -13.8m/s | 11.5°C | 72.6% | 0hPa | 0V | 00:00:00 | 00:00:00 | 00:00:00 | |
| LZ4TU-5 | 2026-09-01 12:56:11 | 44.22106 | 23.40535 | 118° | 9km/h | 2427m | -13.9m/s | 11.0°C | 74.5% | 0hPa | 0V | 00:00:00 | 00:00:00 | 00:00:00 | |
| LZ4TU-5 | 2026-09-01 12:56:07 | 44.22110 | 23.40518 | 106° | 11km/h | 2499m | -13.5m/s | 10.4°C | 76.9% | 0hPa | 0V | 00:00:00 | 00:00:00 | 00:00:00 | |
| LZ4TU-5 | 2026-09-01 12:56:01 | 44.22114 | 23.40495 | 110° | 15km/h | 2567m | -13.1m/s | 9.7°C | 79.3% | 0hPa | 0V | 00:00:00 | 00:00:00 | 00:00:00 | |
| LZ4TU-5 | 2026-09-01 12:55:57 | 44.22123 | 23.40471 | 116° | 16km/h | 2629m | -13.7m/s | 9.3°C | 80.6% | 0hPa | 0V | 00:00:00 | 00:00:00 | 00:00:00 | |
| LZ4TU-5 | 2026-09-01 12:55:51 | 44.22133 | 23.40443 | 124° | 18km/h | 2699m | -13.0m/s | 8.7°C | 81.7% | 0hPa | 0V | 00:00:00 | 00:00:00 | 00:00:00 | |
| LZ4TU-5 | 2026-09-01 12:51:16 | 44.22711 | 23.37348 | 102° | 47km/h | 7047m | -17.2m/s | -17.1°C | 5.8% | 0hPa | 0V | 00:00:00 | 00:00:00 | 00:00:00 | |
| LZ4TU-5 | 2026-09-01 12:51:12 | 44.22724 | 23.37262 | 102° | 49km/h | 7127m | -17.7m/s | -17.5°C | 4.8% | 0hPa | 0V | 00:00:00 | 00:00:00 | 00:00:00 | |
| LZ4TU-5 | 2026-09-01 12:49:03 | 44.23051 | 23.34170 | 99° | 84km/h | 9468m | -19.0m/s | -35.5°C | 20.0% | 0hPa | 0V | 00:00:00 | 00:00:00 | 00:00:00 | |
| LZ4TU-5 | 2026-09-01 12:48:58 | 44.23067 | 23.34023 | 101° | 84km/h | 9566m | -19.0m/s | -36.3°C | 19.5% | 0hPa | 0V | 00:00:00 | 00:00:00 | 00:00:00 | |
| LZ4TU-5 | 2026-09-01 12:46:56 | 44.23561 | 23.29153 | 96° | 135km/h | 12020m | -21.2m/s | -53.2°C | 18.2% | 0hPa | 0V | 00:00:00 | 00:00:00 | 00:00:00 | |
| LZ4TU-5 | 2026-09-01 12:46:50 | 44.23584 | 23.28913 | 98° | 144km/h | 12123m | -21.4m/s | -53.9°C | 17.2% | 0hPa | 0V | 00:00:00 | 00:00:00 | 00:00:00 | |
| LZ4TU-5 | 2026-09-01 12:44:29 | 44.23841 | 23.23598 | 74° | 55km/h | 15510m | -27.3m/s | -60.5°C | 0.0% | 0hPa | 0V | 00:00:00 | 00:00:00 | 00:00:00 | |
| LZ4TU-5 | 2026-09-01 12:44:24 | 44.23820 | 23.23501 | 71° | 62km/h | 15650m | -27.7m/s | -60.7°C | 0.0% | 0hPa | 0V | 00:00:00 | 00:00:00 | 00:00:00 | |
| LZ4TU-5 | 2026-09-01 12:41:54 | 44.23401 | 23.21811 | 35° | 35km/h | 20654m | -40.8m/s | -56.0°C | 0.0% | 0hPa | 0V | 00:00:00 | 00:00:00 | 00:00:00 | |
| LZ4TU-5 | 2026-09-01 12:41:49 | 44.23373 | 23.21778 | 57° | 27km/h | 20861m | -41.3m/s | -55.4°C | 0.0% | 0hPa | 0V | 00:00:00 | 00:00:00 | 00:00:00 | |
| LZ4TU-5 | 2026-09-01 12:39:42 | 44.23351 | 23.21708 | 315° | 11km/h | 27460m | -70.0m/s | -44.9°C | 0.0% | 0hPa | 0V | 00:00:00 | 00:00:00 | 00:00:00 | |
| LZ4TU-5 | 2026-09-01 12:39:37 | 44.23340 | 23.21728 | 309° | 16km/h | 27807m | -70.4m/s | -44.5°C | 0.0% | 0hPa | 0V | 00:00:00 | 00:00:00 | 00:00:00 | |
| LZ4TU-5 | 2026-09-01 12:37:30 | 44.22911 | 23.21692 | 4° | 27km/h | 31290m | 10.4m/s | -38.5°C | 0.2% | 0hPa | 0V | 00:00:00 | 00:00:00 | 00:00:00 | |
| LZ4TU-5 | 2026-09-01 12:37:25 | 44.22886 | 23.21699 | 102° | 16km/h | 31251m | 8.8m/s | -38.5°C | 0.2% | 0hPa | 0V | 00:00:00 | 00:00:00 | 00:00:00 | |
| LZ4TU-5 | 2026-09-01 12:37:20 | 44.22874 | 23.21669 | 360° | 27km/h | 31215m | 6.3m/s | -38.5°C | 0% | 0hPa | 0V | 00:00:00 | 00:00:00 | 00:00:00 | |
| LZ4TU-5 | 2026-09-01 12:35:29 | 44.22306 | 23.21889 | 245° | 27km/h | 30394m | 8.5m/s | -39.7°C | 0.1% | 0hPa | 0V | 00:00:00 | 00:00:00 | 00:00:00 | |
| LZ4TU-5 | 2026-09-01 12:35:24 | 44.22295 | 23.21930 | 4° | 27km/h | 30362m | 6.1m/s | -39.8°C | 0.1% | 0hPa | 0V | 00:00:00 | 00:00:00 | 00:00:00 | |
| LZ4TU-5 | 2026-09-01 12:33:32 | 44.22236 | 23.22193 | 275° | 26km/h | 29590m | 6.5m/s | -41.1°C | 0.0% | 0hPa | 0V | 00:00:00 | 00:00:00 | 00:00:00 | |
| LZ4TU-5 | 2026-09-01 12:33:28 | 44.22239 | 23.22193 | 59° | 20km/h | 29553m | 8.5m/s | -41.0°C | 0.0% | 0hPa | 0V | 00:00:00 | 00:00:00 | 00:00:00 | |
| LZ4TU-5 | 2026-09-01 12:31:33 | 44.21940 | 23.22207 | 152° | 7km/h | 28719m | 8.5m/s | -44.0°C | 0.0% | 0hPa | 0V | 00:00:00 | 00:00:00 | 00:00:00 | |
| LZ4TU-5 | 2026-09-01 12:31:29 | 44.21943 | 23.22214 | 320° | 13km/h | 28691m | 5.0m/s | -44.1°C | 0.0% | 0hPa | 0V | 00:00:00 | 00:00:00 | 00:00:00 | |
| LZ4TU-5 | 2026-09-01 12:29:34 | 44.21635 | 23.22332 | 0° | 0km/h | 27893m | 6.8m/s | -45.3°C | 0.0% | 0hPa | 0V | 00:00:00 | 00:00:00 | 00:00:00 | |
| LZ4TU-5 | 2026-09-01 12:29:29 | 44.21606 | 23.22345 | 13° | 26km/h | 27859m | 4.5m/s | -45.3°C | 0.0% | 0hPa | 0V | 00:00:00 | 00:00:00 | 00:00:00 | |
| LZ4TU-5 | 2026-09-01 12:25:39 | 44.21874 | 23.22211 | 127° | 2km/h | 26269m | 4.7m/s | -48.9°C | 0.0% | 0hPa | 0V | 00:00:00 | 00:00:00 | 00:00:00 | |
| LZ4TU-5 | 2026-09-01 12:25:34 | 44.21882 | 23.22190 | 119° | 22km/h | 26234m | 8.7m/s | -48.8°C | 0.0% | 0hPa | 0V | 00:00:00 | 00:00:00 | 00:00:00 | |
| LZ4TU-5 | 2026-09-01 12:23:41 | 44.21907 | 23.21997 | 329° | 16km/h | 25461m | 9.0m/s | -50.5°C | 0.0% | 0hPa | 0V | 00:00:00 | 00:00:00 | 00:00:00 | |
| LZ4TU-5 | 2026-09-01 12:23:37 | 44.21906 | 23.22008 | 146° | 15km/h | 25433m | 5.9m/s | -50.4°C | 0.0% | 0hPa | 0V | 00:00:00 | 00:00:00 | 00:00:00 | |
| LZ4TU-5 | 2026-09-01 12:21:46 | 44.21703 | 23.21742 | 25° | 20km/h | 24669m | 3.7m/s | -50.1°C | 0.0% | 0hPa | 0V | 00:00:00 | 00:00:00 | 00:00:00 | |
| LZ4TU-5 | 2026-09-01 12:21:41 | 44.21679 | 23.21760 | 316° | 16km/h | 24631m | 6.7m/s | -50.1°C | 0.0% | 0hPa | 0V | 00:00:00 | 00:00:00 | 00:00:00 | |
| LZ4TU-5 | 2026-09-01 12:19:47 | 44.21561 | 23.21876 | 189° | 16km/h | 23882m | 7.8m/s | -52.1°C | 0.0% | 0hPa | 0V | 00:00:00 | 00:00:00 | 00:00:00 | |
| LZ4TU-5 | 2026-09-01 12:19:42 | 44.21571 | 23.21880 | 62° | 15km/h | 23849m | 4.4m/s | -52.1°C | 0.0% | 0hPa | 0V | 00:00:00 | 00:00:00 | 00:00:00 | |
| LZ4TU-5 | 2026-09-01 12:19:38 | 44.21572 | 23.21868 | 170° | 9km/h | 23814m | 9.7m/s | -52.3°C | 0.0% | 0hPa | 0V | 00:00:00 | 00:00:00 | 00:00:00 | |
| LZ4TU-5 | 2026-09-01 12:17:46 | 44.21262 | 23.21880 | 342° | 27km/h | 23093m | 5.5m/s | -52.9°C | 0.0% | 0hPa | 0V | 00:00:00 | 00:00:00 | 00:00:00 | |
| LZ4TU-5 | 2026-09-01 12:17:41 | 44.21239 | 23.21890 | 294° | 24km/h | 23062m | 5.1m/s | -53.0°C | 0.0% | 0hPa | 0V | 00:00:00 | 00:00:00 | 00:00:00 | |
| LZ4TU-5 | 2026-09-01 12:15:49 | 44.21219 | 23.22213 | 92° | 11km/h | 22359m | 8.1m/s | -53.5°C | 0.0% | 0hPa | 0V | 00:00:00 | 00:00:00 | 00:00:00 | |
| LZ4TU-5 | 2026-09-01 12:15:45 | 44.21217 | 23.22211 | 251° | 13km/h | 22337m | 4.4m/s | -53.5°C | 0.0% | 0hPa | 0V | 00:00:00 | 00:00:00 | 00:00:00 | |
| LZ4TU-5 | 2026-09-01 12:13:48 | 44.21281 | 23.22294 | 172° | 11km/h | 21607m | 5.1m/s | -54.6°C | 0.0% | 0hPa | 0V | 00:00:00 | 00:00:00 | 00:00:00 | |
| LZ4TU-5 | 2026-09-01 12:13:42 | 44.21286 | 23.22280 | 118° | 20km/h | 21575m | 6.7m/s | -54.5°C | 0% | 0hPa | 0V | 00:00:00 | 00:00:00 | 00:00:00 | |
| LZ4TU-5 | 2026-09-01 12:11:44 | 44.21027 | 23.21516 | 55° | 37km/h | 20829m | 6.8m/s | -55.6°C | 0.0% | 0hPa | 0V | 00:00:00 | 00:00:00 | 00:00:00 | |
| LZ4TU-5 | 2026-09-01 12:09:46 | 44.20446 | 23.20948 | 125° | 22km/h | 20071m | 5.2m/s | -56.1°C | 0.0% | 0hPa | 0V | 00:00:00 | 00:00:00 | 00:00:00 | |
| LZ4TU-5 | 2026-09-01 12:09:43 | 44.20441 | 23.20910 | 49° | 37km/h | 20045m | 6.1m/s | -56.2°C | 0.0% | 0hPa | 0V | 00:00:00 | 00:00:00 | 00:00:00 | |
| LZ4TU-5 | 2026-09-01 12:07:46 | 44.19879 | 23.20474 | 330° | 24km/h | 19306m | 5.7m/s | -55.9°C | 0.0% | 0hPa | 0V | 00:00:00 | 00:00:00 | 00:00:00 | |
| LZ4TU-5 | 2026-09-01 12:07:42 | 44.19865 | 23.20480 | 68° | 9km/h | 19280m | 7.5m/s | -55.8°C | 0.0% | 0hPa | 0V | 00:00:00 | 00:00:00 | 00:00:00 | |
| LZ4TU-5 | 2026-09-01 12:05:56 | 44.19530 | 23.19956 | 48° | 24km/h | 18645m | 6.7m/s | -55.2°C | 0.0% | 0hPa | 0V | 00:00:00 | 00:00:00 | 00:00:00 | |
| LZ4TU-5 | 2026-09-01 12:05:52 | 44.19520 | 23.19929 | 81° | 22km/h | 18622m | 4.6m/s | -55.2°C | 0.0% | 0hPa | 0V | 00:00:00 | 00:00:00 | 00:00:00 | |
| LZ4TU-5 | 2026-09-01 12:03:59 | 44.19234 | 23.18564 | 77° | 38km/h | 17934m | 5.2m/s | -57.8°C | 0.0% | 0hPa | 0V | 00:00:00 | 00:00:00 | 00:00:00 | |
| LZ4TU-5 | 2026-09-01 12:03:54 | 44.19218 | 23.18523 | 41° | 31km/h | 17902m | 7.9m/s | -57.5°C | 0.0% | 0hPa | 0V | 00:00:00 | 00:00:00 | 00:00:00 | |
| LZ4TU-5 | 2026-09-01 12:02:12 | 44.18905 | 23.17892 | 59° | 27km/h | 17279m | 5.0m/s | -57.7°C | 0.0% | 0hPa | 0V | 00:00:00 | 00:00:00 | 00:00:00 | |
| LZ4TU-5 | 2026-09-01 12:02:09 | 44.18895 | 23.17855 | 72° | 24km/h | 17253m | 6.8m/s | -57.6°C | 0.0% | 0hPa | 0V | 00:00:00 | 00:00:00 | 00:00:00 | |
| LZ4TU-5 | 2026-09-01 12:00:19 | 44.18945 | 23.16370 | 83° | 55km/h | 16587m | 4.4m/s | -58.8°C | 0.3% | 0hPa | 0V | 00:00:00 | 00:00:00 | 00:00:00 | |
| LZ4TU-5 | 2026-09-01 12:00:14 | 44.18943 | 23.16295 | 95° | 49km/h | 16557m | 6.6m/s | -58.8°C | 0.1% | 0hPa | 0V | 00:00:00 | 00:00:00 | 00:00:00 | |
| LZ4TU-5 | 2026-09-01 11:58:25 | 44.18749 | 23.13656 | 60° | 73km/h | 15903m | 5.7m/s | -60.9°C | 1.4% | 0hPa | 0V | 00:00:00 | 00:00:00 | 00:00:00 | |
| LZ4TU-5 | 2026-09-01 11:58:20 | 44.18712 | 23.13530 | 77° | 77km/h | 15875m | 5.9m/s | -61.0°C | 1.5% | 0hPa | 0V | 00:00:00 | 00:00:00 | 00:00:00 | |
| LZ4TU-5 | 2026-09-01 11:56:34 | 44.18341 | 23.11440 | 91° | 71km/h | 15265m | 6.7m/s | -59.6°C | 1.9% | 0hPa | 0V | 00:00:00 | 00:00:00 | 00:00:00 | |
| LZ4TU-5 | 2026-09-01 11:56:29 | 44.18351 | 23.11321 | 97° | 64km/h | 15238m | 5.7m/s | -59.8°C | 1.8% | 0hPa | 0V | 00:00:00 | 00:00:00 | 00:00:00 | |
| LZ4TU-5 | 2026-09-01 11:54:44 | 44.18494 | 23.08597 | 96° | 82km/h | 14625m | 5.6m/s | -58.8°C | 4.9% | 0hPa | 0V | 00:00:00 | 00:00:00 | 00:00:00 | |
| LZ4TU-5 | 2026-09-01 11:54:39 | 44.18506 | 23.08450 | 100° | 82km/h | 14597m | 4.6m/s | -59.1°C | 0% | 0hPa | 0V | 00:00:00 | 00:00:00 | 00:00:00 | |
| LZ4TU-5 | 2026-09-01 11:52:55 | 44.18652 | 23.04923 | 98° | 122km/h | 13950m | 7.1m/s | -59.7°C | 10.7% | 0hPa | 0V | 00:00:00 | 00:00:00 | 00:00:00 | |
| LZ4TU-5 | 2026-09-01 11:52:51 | 44.18665 | 23.04779 | 97° | 91km/h | 13918m | 8.4m/s | -59.5°C | 11.0% | 0hPa | 0V | 00:00:00 | 00:00:00 | 00:00:00 | |
| LZ4TU-5 | 2026-09-01 11:51:09 | 44.18505 | 23.00556 | 84° | 124km/h | 13270m | 7.1m/s | -58.8°C | 14.9% | 0hPa | 0V | 00:00:00 | 00:00:00 | 00:00:00 | |
| LZ4TU-5 | 2026-09-01 11:51:04 | 44.18499 | 23.00332 | 89° | 119km/h | 13237m | 7.9m/s | -58.8°C | 14.9% | 0hPa | 0V | 00:00:00 | 00:00:00 | 00:00:00 | |
| LZ4TU-5 | 2026-09-01 11:49:20 | 44.18624 | 22.95888 | 98° | 126km/h | 12603m | 7.2m/s | -56.6°C | 17.6% | 0hPa | 0V | 00:00:00 | 00:00:00 | 00:00:00 | |
| LZ4TU-5 | 2026-09-01 11:49:15 | 44.18646 | 22.95663 | 103° | 128km/h | 12574m | 6.8m/s | -56.6°C | 17.8% | 0hPa | 0V | 00:00:00 | 00:00:00 | 00:00:00 | |
| LZ4TU-5 | 2026-09-01 11:47:29 | 44.19058 | 22.90492 | 98° | 148km/h | 11976m | 4.8m/s | -53.3°C | 18.4% | 0hPa | 0V | 00:00:00 | 00:00:00 | 00:00:00 | |
| LZ4TU-5 | 2026-09-01 11:47:25 | 44.19069 | 22.90290 | 91° | 131km/h | 11952m | 5.5m/s | -53.1°C | 18.2% | 0hPa | 0V | 00:00:00 | 00:00:00 | 00:00:00 | |
| LZ4TU-5 | 2026-09-01 11:45:45 | 44.19381 | 22.85484 | 96° | 153km/h | 11302m | 5.2m/s | -48.2°C | 0% | 0hPa | 0V | 00:00:00 | 00:00:00 | 00:00:00 | |
| LZ4TU-5 | 2026-09-01 11:45:40 | 44.19419 | 22.85253 | 103° | 119km/h | 11267m | 3.9m/s | -47.9°C | 16.6% | 0hPa | 0V | 00:00:00 | 00:00:00 | 00:00:00 | |
| LZ4TU-5 | 2026-09-01 11:44:02 | 44.19882 | 22.80878 | 95° | 120km/h | 10673m | 5.8m/s | -44.2°C | 15.2% | 0hPa | 0V | 00:00:00 | 00:00:00 | 00:00:00 | |
| LZ4TU-5 | 2026-09-01 11:43:57 | 44.19891 | 22.80653 | 100° | 130km/h | 10647m | 4.1m/s | -44.0°C | 0% | 0hPa | 0V | 00:00:00 | 00:00:00 | 00:00:00 | |
| LZ4TU-5 | 2026-09-01 11:42:18 | 44.20248 | 22.76667 | 104° | 100km/h | 10065m | 7.5m/s | -39.8°C | 15.0% | 0hPa | 0V | 00:00:00 | 00:00:00 | 00:00:00 | |
| LZ4TU-5 | 2026-09-01 11:42:12 | 44.20274 | 22.76508 | 99° | 104km/h | 10038m | 5.2m/s | -39.6°C | 15.6% | 0hPa | 0V | 00:00:00 | 00:00:00 | 00:00:00 | |
| LZ4TU-5 | 2026-09-01 11:40:42 | 44.20591 | 22.73555 | 101° | 69km/h | 9543m | 8.1m/s | -36.6°C | 17.4% | 0hPa | 0V | 00:00:00 | 00:00:00 | 00:00:00 | |
| LZ4TU-5 | 2026-09-01 11:40:37 | 44.20599 | 22.73418 | 106° | 100km/h | 9515m | 7.4m/s | -36.4°C | 17.8% | 0hPa | 0V | 00:00:00 | 00:00:00 | 00:00:00 | |
| LZ4TU-5 | 2026-09-01 11:39:05 | 44.20855 | 22.70541 | 95° | 62km/h | 9014m | 5.8m/s | -32.5°C | 17.0% | 0hPa | 0V | 00:00:00 | 00:00:00 | 00:00:00 | |
| LZ4TU-5 | 2026-09-01 11:39:00 | 44.20874 | 22.70395 | 100° | 100km/h | 8985m | 5.4m/s | -32.2°C | 17.0% | 0hPa | 0V | 00:00:00 | 00:00:00 | 00:00:00 | |
| LZ4TU-5 | 2026-09-01 11:37:24 | 44.21181 | 22.67622 | 95° | 86km/h | 8450m | 6.8m/s | -28.4°C | 0% | 0hPa | 0V | 00:00:00 | 00:00:00 | 00:00:00 | |
| LZ4TU-5 | 2026-09-01 11:35:40 | 44.21243 | 22.65126 | 92° | 60km/h | 7818m | 7.0m/s | -24.2°C | 6.0% | 0hPa | 0V | 00:00:00 | 00:00:00 | 00:00:00 | |
| LZ4TU-5 | 2026-09-01 11:35:35 | 44.21241 | 22.65059 | 85° | 27km/h | 7791m | 4.5m/s | -24.0°C | 6.1% | 0hPa | 0V | 00:00:00 | 00:00:00 | 00:00:00 | |
| LZ4TU-5 | 2026-09-01 11:34:19 | 44.21434 | 22.63771 | 110° | 44km/h | 7355m | 7.5m/s | -20.2°C | 6.1% | 0hPa | 0V | 00:00:00 | 00:00:00 | 00:00:00 | |
| LZ4TU-5 | 2026-09-01 11:34:14 | 44.21422 | 22.63699 | 82° | 64km/h | 7321m | 5.4m/s | -19.9°C | 6.4% | 0hPa | 0V | 00:00:00 | 00:00:00 | 00:00:00 | |
| LZ4TU-5 | 2026-09-01 11:32:11 | 44.21681 | 22.61758 | 113° | 16km/h | 6571m | 6.3m/s | -13.3°C | 13.5% | 0hPa | 0V | 00:00:00 | 00:00:00 | 00:00:00 | |
| LZ4TU-5 | 2026-09-01 11:32:06 | 44.21672 | 22.61693 | 91° | 51km/h | 6540m | 4.9m/s | -13.2°C | 14.8% | 0hPa | 0V | 00:00:00 | 00:00:00 | 00:00:00 | |
| LZ4TU-5 | 2026-09-01 11:30:56 | 44.21856 | 22.60903 | 122° | 37km/h | 6086m | 6.4m/s | -9.8°C | 13.6% | 0hPa | 0V | 00:00:00 | 00:00:00 | 00:00:00 | |
| LZ4TU-5 | 2026-09-01 11:30:51 | 44.21868 | 22.60864 | 86° | 37km/h | 6055m | 4.3m/s | -9.6°C | 0% | 0hPa | 0V | 00:00:00 | 00:00:00 | 00:00:00 | |
| LZ4TU-5 | 2026-09-01 11:29:42 | 44.22192 | 22.60133 | 111° | 53km/h | 5644m | 4.7m/s | -6.5°C | 18.5% | 0hPa | 0V | 00:00:00 | 00:00:00 | 00:00:00 | |
| LZ4TU-5 | 2026-09-01 11:29:38 | 44.22196 | 22.60062 | 106° | 24km/h | 5614m | 5.8m/s | -6.3°C | 16.9% | 0hPa | 0V | 00:00:00 | 00:00:00 | 00:00:00 | |
| LZ4TU-5 | 2026-09-01 11:28:26 | 44.22494 | 22.59007 | 140° | 49km/h | 5212m | 7.0m/s | -4.3°C | 7.6% | 0hPa | 0V | 00:00:00 | 00:00:00 | 00:00:00 | |
| LZ4TU-5 | 2026-09-01 11:28:22 | 44.22518 | 22.58932 | 102° | 55km/h | 5180m | 7.6m/s | -4.1°C | 6.6% | 0hPa | 0V | 00:00:00 | 00:00:00 | 00:00:00 | |
| LZ4TU-5 | 2026-09-01 11:28:16 | 44.22553 | 22.58834 | 116° | 66km/h | 5152m | 4.4m/s | -3.8°C | 5.7% | 0hPa | 0V | 00:00:00 | 00:00:00 | 00:00:00 | |
| LZ4TU-5 | 2026-09-01 11:27:07 | 44.22755 | 22.57822 | 108° | 42km/h | 4733m | 7.9m/s | -2.1°C | 12.8% | 0hPa | 0V | 00:00:00 | 00:00:00 | 00:00:00 | |
| LZ4TU-5 | 2026-09-01 11:27:03 | 44.22754 | 22.57762 | 104° | 46km/h | 4700m | 8.3m/s | -2.1°C | 14.7% | 0hPa | 0V | 00:00:00 | 00:00:00 | 00:00:00 | |
| LZ4TU-5 | 2026-09-01 11:25:45 | 44.22906 | 22.56672 | 76° | 33km/h | 4263m | 6.4m/s | -1.6°C | 39.1% | 0hPa | 0V | 00:00:00 | 00:00:00 | 00:00:00 | |
| LZ4TU-5 | 2026-09-01 11:25:41 | 44.22899 | 22.56606 | 76° | 47km/h | 4239m | 7.0m/s | -1.4°C | 39.3% | 0hPa | 0V | 00:00:00 | 00:00:00 | 00:00:00 | |
| LZ4TU-5 | 2026-09-01 11:24:39 | 44.22831 | 22.55908 | 97° | 38km/h | 3901m | 6.2m/s | 1.0°C | 42.1% | 0hPa | 0V | 00:00:00 | 00:00:00 | 00:00:00 | |
| LZ4TU-5 | 2026-09-01 11:24:34 | 44.22821 | 22.55852 | 63° | 29km/h | 3869m | 7.6m/s | 1.2°C | 0% | 0hPa | 0V | 00:00:00 | 00:00:00 | 00:00:00 | |
| LZ4TU-5 | 2026-09-01 11:23:31 | 44.22805 | 22.55371 | 153° | 11km/h | 3460m | 6.6m/s | 3.6°C | 64.7% | 0hPa | 0V | 00:00:00 | 00:00:00 | 00:00:00 | |
| LZ4TU-5 | 2026-09-01 11:23:27 | 44.22820 | 22.55358 | 112° | 16km/h | 3438m | 6.0m/s | 3.8°C | 65.8% | 0hPa | 0V | 00:00:00 | 00:00:00 | 00:00:00 | |
| LZ4TU-5 | 2026-09-01 11:22:23 | 44.22866 | 22.54920 | 82° | 13km/h | 3003m | 6.4m/s | 6.8°C | 76.2% | 0hPa | 0V | 00:00:00 | 00:00:00 | 00:00:00 | |
| LZ4TU-5 | 2026-09-01 11:22:19 | 44.22886 | 22.54900 | 138° | 26km/h | 2970m | 6.4m/s | 7.1°C | 0% | 0hPa | 0V | 00:00:00 | 00:00:00 | 00:00:00 | |
| LZ4TU-5 | 2026-09-01 11:21:15 | 44.23022 | 22.54578 | 121° | 26km/h | 2536m | 7.1m/s | 10.8°C | 70.6% | 0hPa | 0V | 00:00:00 | 00:00:00 | 00:00:00 | |
| LZ4TU-5 | 2026-09-01 11:21:11 | 44.23034 | 22.54555 | 124° | 16km/h | 2501m | 6.8m/s | 11.0°C | 71.3% | 0hPa | 0V | 00:00:00 | 00:00:00 | 00:00:00 | |
| LZ4TU-5 | 2026-09-01 11:20:07 | 44.23121 | 22.54098 | 80° | 26km/h | 2132m | 5.4m/s | 11.9°C | 72.4% | 0hPa | 0V | 00:00:00 | 00:00:00 | 00:00:00 | |
| LZ4TU-5 | 2026-09-01 11:20:02 | 44.23121 | 22.54066 | 118° | 20km/h | 2100m | 6.5m/s | 12.1°C | 71.1% | 0hPa | 0V | 00:00:00 | 00:00:00 | 00:00:00 |